createdAt,value
2022-08-09T00:02:53.265Z,16.90
2022-08-09T00:06:16.125Z,16.90
2022-08-09T00:08:31.336Z,16.90
2022-08-09T00:11:00.792Z,16.90
2022-08-09T00:16:07.037Z,16.90
2022-08-09T00:18:36.986Z,16.80
2022-08-09T00:21:07.938Z,16.80
2022-08-09T00:23:58.233Z,16.80
2022-08-09T00:26:29.733Z,16.70
2022-08-09T00:29:01.237Z,16.80
2022-08-09T00:31:57.565Z,16.70
2022-08-09T00:34:19.992Z,16.70
2022-08-09T00:36:49.303Z,16.70
2022-08-09T00:40:13.020Z,16.70
2022-08-09T00:44:16.261Z,16.60
2022-08-09T00:44:55.748Z,16.60
2022-08-09T00:47:24.944Z,16.50
2022-08-09T00:49:56.688Z,16.60
2022-08-09T00:52:28.071Z,16.50
2022-08-09T00:55:00.370Z,16.50
2022-08-09T00:57:34.330Z,16.50
2022-08-09T01:00:21.539Z,16.40
2022-08-09T01:02:51.503Z,16.40
2022-08-09T01:05:51.018Z,16.40
2022-08-09T01:08:16.521Z,16.30
2022-08-09T01:10:51.162Z,16.30
2022-08-09T01:13:22.300Z,16.30
2022-08-09T01:15:54.668Z,16.30
2022-08-09T01:18:30.162Z,16.20
2022-08-09T01:21:14.412Z,16.20
2022-08-09T01:24:01.029Z,16.20
2022-08-09T01:26:53.461Z,16.20
2022-08-09T01:29:28.031Z,16.20
2022-08-09T01:32:32.534Z,16.80
2022-08-09T01:34:49.719Z,16.20
2022-08-09T01:37:42.852Z,16.20
2022-08-09T01:40:11.097Z,16.30
2022-08-09T01:42:54.592Z,16.30
2022-08-09T01:45:24.426Z,16.30
2022-08-09T01:47:53.783Z,16.30
2022-08-09T01:50:29.914Z,16.30
2022-08-09T01:55:48.943Z,16.30
2022-08-09T01:58:19.056Z,16.30
2022-08-09T02:08:38.438Z,16.30
2022-08-09T02:11:21.212Z,16.30
2022-08-09T02:13:55.488Z,16.20
2022-08-09T02:16:53.381Z,16.20
2022-08-09T02:19:34.959Z,16.20
2022-08-09T02:22:12.534Z,16.20
2022-08-09T02:24:42.321Z,16.10
2022-08-09T02:27:18.663Z,16.10
2022-08-09T02:29:51.389Z,16.10
2022-08-09T02:32:22.472Z,16.90
2022-08-09T02:34:55.944Z,16.10
2022-08-09T02:37:31.815Z,16.00
2022-08-09T02:40:04.977Z,16.00
2022-08-09T02:42:40.416Z,15.90
2022-08-09T02:45:15.193Z,15.90
2022-08-09T02:47:57.339Z,15.90
2022-08-09T02:50:30.501Z,15.80
2022-08-09T02:53:00.954Z,15.80
2022-08-09T02:55:39.385Z,15.70
2022-08-09T02:58:32.325Z,15.70
2022-08-09T03:01:04.331Z,15.70
2022-08-09T03:03:37.319Z,15.70
2022-08-09T03:06:25.153Z,15.70
2022-08-09T03:08:56.577Z,15.70
2022-08-09T03:12:04.629Z,15.70
2022-08-09T03:14:15.986Z,15.70
2022-08-09T03:16:48.183Z,15.70
2022-08-09T03:19:58.649Z,15.70
2022-08-09T03:22:12.408Z,15.70
2022-08-09T03:25:21.315Z,15.70
2022-08-09T03:27:45.299Z,15.70
2022-08-09T03:30:29.847Z,15.80
2022-08-09T03:33:17.782Z,15.80
2022-08-09T03:36:12.453Z,15.80
2022-08-09T03:38:41.881Z,15.80
2022-08-09T03:41:15.084Z,15.80
2022-08-09T03:44:03.043Z,15.80
2022-08-09T03:46:33.806Z,15.80
2022-08-09T03:49:08.242Z,15.90
2022-08-09T03:51:54.234Z,15.90
2022-08-09T03:54:31.093Z,15.90
2022-08-09T03:57:12.403Z,15.90
2022-08-09T03:59:55.074Z,15.90
2022-08-09T04:02:27.981Z,16.00
2022-08-09T04:05:01.443Z,16.00
2022-08-09T04:07:52.460Z,16.10
2022-08-09T04:10:28.906Z,16.10
2022-08-09T04:13:00.746Z,16.10
2022-08-09T04:16:17.421Z,16.10
2022-08-09T04:18:21.524Z,16.10
2022-08-09T04:20:52.143Z,16.10
2022-08-09T04:23:24.700Z,16.10
2022-08-09T04:25:54.675Z,16.10
2022-08-09T04:28:33.830Z,16.20
2022-08-09T04:31:07.945Z,16.20
2022-08-09T04:33:47.198Z,16.30
2022-08-09T04:36:26.232Z,16.40
2022-08-09T04:38:55.443Z,16.70
2022-08-09T04:41:32.867Z,16.60
2022-08-09T04:44:06.491Z,16.60
2022-08-09T04:46:56.885Z,16.70
2022-08-09T04:49:40.508Z,16.80
2022-08-09T04:52:27.532Z,17.00
2022-08-09T04:54:57.002Z,17.10
2022-08-09T04:57:25.918Z,17.30
2022-08-09T04:59:55.711Z,17.30
2022-08-09T05:02:30.638Z,17.40
2022-08-09T05:05:09.925Z,17.40
2022-08-09T05:07:40.022Z,17.50
2022-08-09T05:10:09.581Z,17.50
2022-08-09T05:12:39.014Z,17.50
2022-08-09T05:15:11.476Z,17.50
2022-08-09T05:18:38.046Z,17.60
2022-08-09T05:20:30.510Z,17.60
2022-08-09T05:23:51.121Z,17.60
2022-08-09T05:25:50.875Z,17.70
2022-08-09T05:28:20.516Z,17.70
2022-08-09T05:30:51.540Z,17.70
2022-08-09T05:33:26.350Z,17.70
2022-08-09T05:36:04.304Z,17.80
2022-08-09T05:38:39.106Z,17.80
2022-08-09T05:41:08.456Z,17.80
2022-08-09T05:43:45.305Z,17.80
2022-08-09T05:46:18.114Z,17.90
2022-08-09T05:48:48.764Z,17.90
2022-08-09T05:51:42.879Z,17.90
2022-08-09T05:54:17.930Z,18.00
2022-08-09T05:56:54.430Z,18.00
2022-08-09T05:59:24.090Z,18.10
2022-08-09T06:01:58.941Z,18.10
2022-08-09T06:04:35.071Z,18.20
2022-08-09T06:07:04.214Z,18.10
2022-08-09T06:09:55.219Z,18.00
2022-08-09T06:12:22.539Z,18.00
2022-08-09T06:14:55.032Z,18.00
2022-08-09T06:17:40.350Z,18.00
2022-08-09T06:20:09.922Z,18.00
2022-08-09T06:22:39.391Z,18.10
2022-08-09T06:25:12.256Z,18.10
2022-08-09T06:27:51.544Z,18.10
2022-08-09T06:30:20.755Z,18.20
2022-08-09T06:33:00.609Z,18.30
2022-08-09T06:35:56.353Z,18.40
2022-08-09T06:38:36.306Z,18.50
2022-08-09T06:41:13.507Z,18.60
2022-08-09T06:43:47.733Z,18.70
2022-08-09T06:46:38.989Z,18.90
2022-08-09T06:49:05.061Z,19.10
2022-08-09T06:51:39.971Z,19.20
2022-08-09T06:54:09.152Z,19.40
2022-08-09T06:56:45.471Z,19.60
2022-08-09T07:00:51.003Z,19.80
2022-08-09T07:02:04.930Z,20.00
2022-08-09T07:04:34.132Z,20.20
2022-08-09T07:07:04.789Z,20.30
2022-08-09T07:09:53.585Z,20.50
2022-08-09T07:12:38.607Z,20.50
2022-08-09T07:16:38.931Z,20.50
2022-08-09T07:18:02.343Z,20.50
2022-08-09T07:20:31.578Z,20.60
2022-08-09T07:23:00.713Z,20.70
2022-08-09T07:25:30.010Z,20.90
2022-08-09T07:28:09.582Z,21.00
2022-08-09T07:30:48.163Z,21.10
2022-08-09T07:33:17.419Z,21.10
2022-08-09T07:35:53.572Z,21.20
2022-08-09T07:40:54.088Z,21.40
2022-08-09T07:43:31.151Z,21.40
2022-08-09T07:46:11.677Z,21.60
2022-08-09T07:48:58.807Z,21.60
2022-08-09T07:52:05.142Z,21.90
2022-08-09T07:54:19.232Z,22.00
2022-08-09T07:56:56.404Z,21.90
2022-08-09T07:59:34.406Z,22.00
2022-08-09T08:02:19.187Z,21.90
2022-08-09T08:04:49.405Z,22.10
2022-08-09T08:08:43.660Z,22.20
2022-08-09T08:10:11.696Z,22.40
2022-08-09T08:12:43.177Z,22.60
2022-08-09T08:15:16.893Z,22.50
2022-08-09T08:20:28.636Z,22.50
2022-08-09T08:23:03.788Z,22.60
2022-08-09T08:25:40.049Z,22.80
2022-08-09T08:28:14.229Z,23.10
2022-08-09T08:30:45.439Z,23.30
2022-08-09T08:35:59.482Z,23.30
2022-08-09T08:38:29.711Z,23.40
2022-08-09T08:40:59.260Z,23.30
2022-08-09T08:43:28.337Z,23.30
2022-08-09T08:46:09.797Z,23.10
2022-08-09T08:48:51.853Z,23.10
2022-08-09T08:51:22.527Z,23.10
2022-08-09T08:54:04.217Z,23.10
2022-08-09T08:56:35.305Z,23.20
2022-08-09T08:59:18.759Z,23.30
2022-08-09T09:01:53.104Z,23.50
2022-08-09T09:04:29.863Z,23.80
2022-08-09T09:07:03.293Z,23.50
2022-08-09T09:09:58.029Z,23.60
2022-08-09T09:12:29.201Z,23.50
2022-08-09T09:14:59.342Z,23.40
2022-08-09T09:17:48.452Z,23.30
2022-08-09T09:20:17.966Z,23.30
2022-08-09T09:22:53.933Z,23.50
2022-08-09T09:26:03.772Z,23.50
2022-08-09T09:29:03.029Z,23.50
2022-08-09T09:32:04.578Z,23.50
2022-08-09T09:34:15.328Z,23.70
2022-08-09T09:36:53.795Z,23.60
2022-08-09T09:39:25.573Z,23.80
2022-08-09T09:42:22.808Z,23.80
2022-08-09T09:44:57.197Z,23.80
2022-08-09T09:47:26.591Z,24.00
2022-08-09T09:50:14.097Z,24.00
2022-08-09T09:52:53.608Z,24.00
2022-08-09T09:55:27.851Z,24.00
2022-08-09T09:58:16.647Z,24.10
2022-08-09T10:03:44.488Z,24.10
2022-08-09T10:06:15.602Z,24.30
2022-08-09T10:08:55.289Z,24.50
2022-08-09T10:11:59.219Z,24.60
2022-08-09T10:14:27.296Z,24.70
2022-08-09T10:17:11.482Z,24.90
2022-08-09T10:19:53.010Z,25.20
2022-08-09T10:22:34.521Z,25.50
2022-08-09T10:25:11.050Z,25.70
2022-08-09T10:27:54.555Z,25.90
2022-08-09T10:34:04.937Z,25.90
2022-08-09T10:36:04.691Z,25.80
2022-08-09T10:38:57.257Z,25.50
2022-08-09T10:41:23.460Z,25.50
2022-08-09T10:44:00.105Z,25.60
2022-08-09T10:46:55.213Z,25.80
2022-08-09T10:49:50.459Z,26.00
2022-08-09T10:52:23.341Z,26.00
2022-08-09T10:54:56.663Z,25.80
2022-08-09T10:57:36.365Z,26.00
2022-08-09T11:00:32.396Z,25.90
2022-08-09T11:03:15.879Z,25.80
2022-08-09T11:06:06.874Z,25.80
2022-08-09T11:11:09.204Z,25.60
2022-08-09T11:13:51.031Z,25.60
2022-08-09T11:16:37.250Z,25.70
2022-08-09T11:19:11.252Z,25.90
2022-08-09T11:22:05.393Z,26.20
2022-08-09T11:25:04.449Z,26.50
2022-08-09T11:28:02.602Z,26.60
2022-08-09T11:30:35.629Z,27.00
2022-08-09T11:33:06.851Z,27.20
2022-08-09T11:35:49.345Z,27.10
2022-08-09T11:38:22.142Z,27.00
2022-08-09T11:40:54.681Z,26.10
2022-08-09T11:43:42.258Z,26.00
2022-08-09T11:46:12.522Z,26.00
2022-08-09T11:48:49.151Z,25.90
2022-08-09T11:52:53.637Z,26.00
2022-08-09T11:54:27.554Z,26.20
2022-08-09T11:57:28.394Z,26.60
2022-08-09T12:00:16.245Z,26.20
2022-08-09T12:02:51.085Z,25.80
2022-08-09T12:05:22.831Z,25.60
2022-08-09T12:10:39.529Z,25.60
2022-08-09T12:14:07.336Z,25.10
2022-08-09T12:16:03.244Z,25.00
2022-08-09T12:18:33.851Z,25.10
2022-08-09T12:21:10.992Z,25.30
2022-08-09T12:24:06.212Z,25.50
2022-08-09T12:26:39.483Z,26.40
2022-08-09T12:29:30.033Z,27.20
2022-08-09T12:32:03.548Z,27.20
2022-08-09T12:34:37.825Z,26.60
2022-08-09T12:37:09.764Z,26.60
2022-08-09T12:40:06.691Z,25.90
2022-08-09T12:42:35.823Z,25.70
2022-08-09T12:45:07.059Z,25.60
2022-08-09T12:47:55.798Z,25.10
2022-08-09T12:50:25.942Z,25.10
2022-08-09T12:53:18.143Z,25.10
2022-08-09T12:56:11.525Z,25.00
2022-08-09T12:58:32.947Z,25.20
2022-08-09T13:01:04.684Z,25.40
2022-08-09T13:03:53.944Z,25.50
2022-08-09T13:06:34.213Z,25.40
2022-08-09T13:09:08.301Z,25.60
2022-08-09T13:11:39.627Z,25.70
2022-08-09T13:14:40.761Z,25.20
2022-08-09T13:17:01.974Z,25.20
2022-08-09T13:20:10.211Z,25.30
2022-08-09T13:25:12.191Z,25.30
2022-08-09T13:27:55.416Z,25.40
2022-08-09T13:30:50.842Z,25.30
2022-08-09T13:33:23.313Z,25.30
2022-08-09T13:36:24.467Z,25.40
2022-08-09T13:38:57.506Z,25.40
2022-08-09T13:41:58.821Z,25.40
2022-08-09T13:44:17.923Z,25.50
2022-08-09T13:47:25.235Z,25.60
2022-08-09T13:49:38.099Z,25.60
2022-08-09T13:52:24.707Z,25.50
2022-08-09T13:55:00.785Z,25.70
2022-08-09T13:57:39.612Z,25.70
2022-08-09T14:00:12.144Z,25.70
2022-08-09T14:03:04.082Z,25.60
2022-08-09T14:06:00.134Z,25.60
2022-08-09T14:08:20.736Z,25.50
2022-08-09T14:10:53.101Z,25.30
2022-08-09T14:14:15.858Z,25.10
2022-08-09T14:16:15.063Z,24.90
2022-08-09T14:18:50.450Z,24.90
2022-08-09T14:21:22.511Z,24.80
2022-08-09T14:23:54.591Z,24.60
2022-08-09T14:26:30.161Z,24.40
2022-08-09T14:29:07.374Z,24.40
2022-08-09T14:31:52.119Z,24.40
2022-08-09T14:34:31.113Z,24.50
2022-08-09T14:37:02.688Z,24.60
2022-08-09T14:39:45.743Z,24.80
2022-08-09T14:42:31.782Z,24.30
2022-08-09T14:46:39.755Z,24.40
2022-08-09T14:47:57.966Z,24.30
2022-08-09T14:50:29.126Z,24.20
2022-08-09T14:52:57.874Z,24.10
2022-08-09T14:55:29.205Z,24.30
2022-08-09T14:58:02.853Z,24.30
2022-08-09T15:00:36.248Z,24.50
2022-08-09T15:03:06.828Z,24.50
2022-08-09T15:05:36.508Z,24.30
2022-08-09T15:08:05.916Z,24.10
2022-08-09T15:10:39.282Z,24.10
2022-08-09T15:13:08.733Z,24.30
2022-08-09T15:15:39.752Z,24.60
2022-08-09T15:18:14.528Z,24.80
2022-08-09T15:21:55.664Z,24.90
2022-08-09T15:24:03.178Z,24.60
2022-08-09T15:26:30.959Z,24.60
2022-08-09T15:29:04.366Z,24.50
2022-08-09T15:31:41.757Z,24.30
2022-08-09T15:34:34.550Z,24.10
2022-08-09T15:37:04.259Z,23.90
2022-08-09T15:39:53.136Z,23.70
2022-08-09T15:42:23.077Z,23.80
2022-08-09T15:44:52.883Z,23.70
2022-08-09T15:47:31.778Z,23.60
2022-08-09T15:50:14.241Z,23.60
2022-08-09T15:52:54.717Z,23.60
2022-08-09T15:55:34.461Z,23.60
2022-08-09T15:58:27.088Z,23.50
2022-08-09T16:00:56.463Z,23.60
2022-08-09T16:03:37.978Z,23.70
2022-08-09T16:06:07.850Z,23.50
2022-08-09T16:09:00.818Z,23.50
2022-08-09T16:11:30.931Z,23.60
2022-08-09T16:14:07.189Z,23.50
2022-08-09T16:16:37.309Z,23.50
2022-08-09T16:19:09.011Z,23.50
2022-08-09T16:21:37.880Z,23.40
2022-08-09T16:24:08.848Z,23.40
2022-08-09T16:26:56.825Z,23.40
2022-08-09T16:29:36.822Z,23.40
2022-08-09T16:32:20.275Z,23.40
2022-08-09T16:34:58.296Z,23.50
2022-08-09T16:37:55.686Z,23.60
2022-08-09T16:40:29.431Z,23.60
2022-08-09T16:43:05.735Z,23.70
2022-08-09T16:45:34.366Z,23.70
2022-08-09T16:48:41.607Z,23.70
2022-08-09T16:53:34.159Z,24.70
2022-08-09T16:56:09.124Z,25.20
2022-08-09T17:01:11.457Z,25.80
2022-08-09T17:03:40.495Z,25.30
2022-08-09T17:06:29.062Z,25.60
2022-08-09T17:09:16.212Z,26.10
2022-08-09T17:11:52.515Z,26.00
2022-08-09T17:14:28.029Z,25.50
2022-08-09T17:16:59.671Z,24.90
2022-08-09T17:19:47.423Z,24.30
2022-08-09T17:22:24.188Z,23.80
2022-08-09T17:25:10.036Z,23.40
2022-08-09T17:27:49.507Z,22.90
2022-08-09T17:30:25.946Z,22.20
2022-08-09T17:33:00.720Z,22.00
2022-08-09T17:35:35.389Z,21.10
2022-08-09T17:38:13.722Z,21.30
2022-08-09T17:40:59.496Z,21.00
2022-08-09T17:43:34.270Z,20.70
2022-08-09T17:46:07.563Z,20.40
2022-08-09T17:48:40.062Z,20.30
2022-08-09T17:51:18.603Z,20.10
2022-08-09T17:53:52.167Z,20.00
2022-08-09T17:56:26.761Z,19.80
2022-08-09T17:58:58.788Z,19.60
2022-08-09T18:02:03.253Z,19.50
2022-08-09T18:04:19.984Z,19.40
2022-08-09T18:06:54.387Z,19.30
2022-08-09T18:09:40.560Z,19.10
2022-08-09T18:12:17.734Z,19.10
2022-08-09T18:14:55.060Z,18.90
2022-08-09T18:17:27.161Z,18.80
2022-08-09T18:20:57.442Z,18.80
2022-08-09T18:23:05.106Z,18.70
2022-08-09T18:25:52.781Z,18.70
2022-08-09T18:31:13.615Z,18.50
2022-08-09T18:33:53.258Z,18.50
2022-08-09T18:36:25.602Z,18.40
2022-08-09T18:39:02.696Z,18.30
2022-08-09T18:41:34.770Z,18.30
2022-08-09T18:44:12.938Z,18.30
2022-08-09T18:46:46.856Z,18.30
2022-08-09T18:49:20.588Z,18.20
2022-08-09T18:51:55.106Z,18.10
2022-08-09T18:54:28.968Z,18.10
2022-08-09T18:57:06.413Z,18.00
2022-08-09T18:59:37.424Z,17.90
2022-08-09T19:02:19.158Z,17.80
2022-08-09T19:05:04.403Z,17.80
2022-08-09T19:07:37.094Z,17.80
2022-08-09T19:10:15.473Z,17.70
2022-08-09T19:12:51.327Z,17.60
2022-08-09T19:15:36.247Z,17.60
2022-08-09T19:18:06.826Z,17.50
2022-08-09T19:20:56.772Z,17.50
2022-08-09T19:24:33.610Z,17.40
2022-08-09T19:26:15.887Z,17.40
2022-08-09T19:28:48.917Z,17.30
2022-08-09T19:31:17.971Z,17.30
2022-08-09T19:33:47.859Z,17.30
2022-08-09T19:36:16.545Z,17.20
2022-08-09T19:38:45.994Z,17.10
2022-08-09T19:46:35.566Z,17.00
2022-08-09T19:50:09.025Z,16.90
2022-08-09T19:52:10.184Z,16.90
2022-08-09T19:54:41.080Z,16.80
2022-08-09T19:57:10.452Z,16.70
2022-08-09T19:59:57.246Z,16.70
2022-08-09T20:04:07.139Z,16.60
2022-08-09T20:05:17.955Z,16.60
2022-08-09T20:07:59.181Z,16.60
2022-08-09T20:10:34.436Z,16.50
2022-08-09T20:13:04.984Z,16.50
2022-08-09T20:16:37.769Z,16.40
2022-08-09T20:18:27.790Z,16.20
2022-08-09T20:20:58.862Z,16.10
2022-08-09T20:23:39.395Z,15.90
2022-08-09T20:26:10.022Z,15.80
2022-08-09T20:28:48.611Z,15.60
2022-08-09T20:31:19.292Z,15.40
2022-08-09T20:33:52.466Z,15.30
2022-08-09T20:36:28.326Z,15.20
2022-08-09T20:39:29.028Z,15.10
2022-08-09T20:41:48.880Z,15.00
2022-08-09T20:44:26.557Z,14.90
2022-08-09T20:46:57.784Z,14.80
2022-08-09T20:49:28.630Z,14.80
2022-08-09T20:52:00.404Z,14.70
2022-08-09T20:54:29.402Z,14.60
2022-08-09T20:56:58.847Z,14.50
2022-08-09T21:00:20.983Z,14.40
2022-08-09T21:02:18.549Z,14.40
2022-08-09T21:05:57.930Z,14.30
2022-08-09T21:07:40.368Z,14.20
2022-08-09T21:10:10.939Z,14.20
2022-08-09T21:12:40.503Z,14.20
2022-08-09T21:15:34.251Z,14.20
2022-08-09T21:18:21.742Z,14.10
2022-08-09T21:20:54.025Z,14.00
2022-08-09T21:23:26.591Z,13.90
2022-08-09T21:26:15.520Z,13.90
2022-08-09T21:28:56.072Z,13.90
2022-08-09T21:31:48.222Z,13.90
2022-08-09T21:34:21.007Z,13.80
2022-08-09T21:36:57.699Z,13.80
2022-08-09T21:39:41.511Z,13.80
2022-08-09T21:42:11.356Z,13.80
2022-08-09T21:44:42.650Z,13.80
2022-08-09T21:47:17.606Z,13.80
2022-08-09T21:49:48.174Z,14.00
2022-08-09T21:52:20.377Z,14.00
2022-08-09T21:57:39.362Z,14.30
2022-08-09T22:02:51.122Z,14.40
2022-08-09T22:05:36.012Z,14.50
2022-08-09T22:08:13.926Z,14.50
2022-08-09T22:11:49.841Z,14.50
2022-08-09T22:13:36.611Z,14.60
2022-08-09T22:18:37.210Z,14.90
2022-08-09T22:21:09.725Z,14.90
2022-08-09T22:24:01.213Z,14.90
2022-08-09T22:26:34.846Z,14.90
2022-08-09T22:29:09.873Z,14.90
2022-08-09T22:31:53.251Z,14.80
2022-08-09T22:34:26.205Z,14.90
2022-08-09T22:36:55.642Z,14.80
2022-08-09T22:39:57.097Z,14.80
2022-08-09T22:42:22.470Z,14.80
2022-08-09T22:45:00.091Z,14.50
2022-08-09T22:48:10.455Z,14.60
2022-08-09T22:53:04.247Z,14.40
2022-08-09T22:58:32.570Z,14.40
2022-08-09T23:01:05.881Z,14.40
2022-08-09T23:04:03.887Z,14.40
2022-08-09T23:06:32.737Z,14.40
2022-08-09T23:09:04.994Z,14.50
2022-08-09T23:11:33.752Z,14.40
2022-08-09T23:14:03.525Z,14.50
2022-08-09T23:16:34.247Z,14.50
2022-08-09T23:19:02.866Z,14.40
2022-08-09T23:21:34.760Z,14.40
2022-08-09T23:24:07.178Z,14.50
2022-08-09T23:26:36.657Z,14.50
2022-08-09T23:29:05.689Z,14.50
2022-08-09T23:34:04.713Z,14.50
2022-08-09T23:36:33.530Z,14.50
2022-08-09T23:39:02.522Z,14.50
2022-08-09T23:41:31.178Z,14.40
2022-08-09T23:46:28.692Z,14.30
2022-08-09T23:48:57.335Z,14.30
2022-08-09T23:51:28.215Z,14.30
2022-08-09T23:56:53.052Z,14.20
